Time;durP1;ratioP1;P1;durP2;ratioP2;P2;SDS_P1;SDS_P2;PMS_P1;PMS_P2;Temp;Humidity;BMP_temperature;BMP_pressure;BME280_temperature;BME280_humidity;BME280_pressure;Samples;Min_cycle;Max_cycle;Signal;HPM_P1;HPM_P2
2022/04/27 00:01:29;;;;;;;12.23;5.85;;;10.30;99.90;;;10.24;94.86;101582.81;5165459;28;20097;-88
2022/04/27 00:04:01;;;;;;;14.95;6.65;;;10.30;99.90;;;10.22;94.68;101573.97;5165347;28;20432;-87
2022/04/27 00:06:33;;;;;;;12.50;6.35;;;10.20;99.90;;;10.16;94.45;101575.38;5155282;28;20494;-89
2022/04/27 00:09:06;;;;;;;13.88;6.00;;;10.20;99.90;;;10.13;94.54;101576.13;5165748;28;20054;-88
2022/04/27 00:11:38;;;;;;;13.07;6.05;;;10.20;99.90;;;10.10;94.65;101575.06;5160208;28;20050;-87
2022/04/27 00:14:11;;;;;;;11.27;5.93;;;10.10;99.90;;;10.05;94.71;101578.38;5154911;28;20057;-87
2022/04/27 00:16:44;;;;;;;12.82;5.90;;;10.10;99.90;;;9.95;94.78;101575.22;5154306;28;20046;-86
2022/04/27 00:19:16;;;;;;;12.48;6.15;;;10.00;99.90;;;9.94;94.79;101579.53;5155522;28;20130;-88
2022/04/27 00:21:48;;;;;;;12.82;5.85;;;10.00;99.90;;;9.89;94.90;101574.91;5156922;28;20058;-88
2022/04/27 00:24:20;;;;;;;11.63;6.20;;;9.90;99.90;;;9.82;94.96;101578.03;5153723;28;20508;-86
2022/04/27 00:26:52;;;;;;;11.27;5.75;;;9.80;99.90;;;9.76;95.13;101573.41;5159899;28;20050;-87
2022/04/27 00:29:27;;;;;;;13.18;6.43;;;9.80;99.90;;;9.68;95.35;101574.72;5170699;28;20101;-87
2022/04/27 00:31:59;;;;;;;11.77;5.82;;;9.70;99.90;;;9.66;95.27;101576.38;5170440;28;20051;-87
2022/04/27 00:34:31;;;;;;;12.38;6.15;;;9.70;99.90;;;9.60;95.77;101582.16;5171127;28;20050;-88
2022/04/27 00:37:03;;;;;;;12.82;5.93;;;9.70;99.90;;;9.49;95.66;101576.41;5170310;28;20055;-86
2022/04/27 00:39:35;;;;;;;14.40;6.72;;;9.60;99.90;;;9.41;96.09;101569.00;5170377;28;20053;-87
2022/04/27 00:42:17;;;;;;;12.82;6.43;;;9.50;99.90;;;9.47;96.73;101582.34;5168759;28;20061;-87
2022/04/27 00:44:51;;;;;;;13.57;6.18;;;9.50;99.90;;;9.46;97.10;101583.16;5169384;28;20050;-87
2022/04/27 00:47:23;;;;;;;12.95;6.53;;;9.50;99.90;;;9.45;97.23;101587.47;5169625;28;20480;-87
2022/04/27 00:49:57;;;;;;;15.40;6.28;;;9.50;99.90;;;9.36;97.08;101579.19;5168926;28;20056;-87
2022/04/27 00:52:30;;;;;;;13.18;6.60;;;9.50;99.90;;;9.35;97.11;101585.19;5169331;28;20145;-87
2022/04/27 00:55:02;;;;;;;11.63;6.22;;;9.40;99.90;;;9.32;97.19;101590.22;5169619;28;20058;-87
2022/04/27 00:57:35;;;;;;;15.40;6.40;;;9.40;99.90;;;9.29;97.17;101592.69;5169909;28;20057;-87
2022/04/27 01:00:09;;;;;;;11.00;6.18;;;9.40;99.90;;;9.27;97.45;101599.53;5169807;28;20054;-85
2022/04/27 01:02:42;;;;;;;14.63;6.75;;;9.30;99.90;;;9.23;97.59;101605.38;5170106;28;20507;-87
2022/04/27 01:05:14;;;;;;;16.35;6.95;;;9.30;99.90;;;9.22;98.06;101600.97;5169717;28;20076;-88
2022/04/27 01:07:46;;;;;;;13.50;6.85;;;9.30;99.90;;;9.18;98.10;101591.22;5168680;28;20100;-87
2022/04/27 01:10:18;;;;;;;14.48;6.72;;;9.30;99.90;;;9.19;98.29;101604.31;5169263;28;20065;-86
2022/04/27 01:12:50;;;;;;;13.85;7.03;;;9.30;99.90;;;9.18;98.34;101604.22;5168783;28;20052;-87
2022/04/27 01:15:39;;;;;;;14.50;6.90;;;9.30;99.90;;;9.16;98.44;101611.06;5168923;28;20049;-88
2022/04/27 01:18:11;;;;;;;12.75;6.45;;;9.20;99.90;;;9.13;98.78;101609.19;5173799;28;20058;-86
2022/04/27 01:20:45;;;;;;;16.13;7.45;;;9.20;99.90;;;9.11;98.54;101608.19;5172063;28;20054;-86
2022/04/27 01:23:18;;;;;;;13.90;6.85;;;9.20;99.90;;;9.10;98.46;101618.53;5172310;28;20137;-88
2022/04/27 01:25:52;;;;;;;11.88;6.15;;;9.20;99.90;;;9.08;98.85;101622.78;5172814;28;20057;-88
2022/04/27 01:28:27;;;;;;;10.93;5.97;;;9.10;99.90;;;9.07;99.01;101619.28;5171675;28;20093;-86
2022/04/27 01:31:01;;;;;;;11.60;5.75;;;9.10;99.90;;;9.03;99.39;101613.81;5171666;28;20054;-86
2022/04/27 01:33:35;;;;;;;11.15;5.85;;;9.10;99.90;;;9.04;99.17;101613.00;5165445;28;150092;-88
2022/04/27 01:36:13;;;;;;;12.18;6.20;;;9.10;99.90;;;9.05;99.48;101622.59;5170594;28;20046;-88
2022/04/27 01:38:45;;;;;;;13.73;5.78;;;9.10;99.90;;;9.05;99.46;101620.88;5171895;28;20141;-87
2022/04/27 01:41:17;;;;;;;13.30;6.65;;;9.10;99.90;;;9.06;99.78;101625.25;5171442;28;20497;-87
2022/04/27 01:43:49;;;;;;;14.55;6.63;;;9.10;99.90;;;9.10;100.00;101624.63;5171903;28;20089;-86
2022/04/27 01:46:21;;;;;;;12.80;6.60;;;9.20;99.90;;;9.12;100.00;101616.91;5172264;28;20054;-87
2022/04/27 01:48:53;;;;;;;12.75;6.70;;;9.20;99.90;;;9.13;100.00;101623.91;5172037;28;20061;-87
2022/04/27 01:54:18;;;;;;;12.88;6.65;;;9.20;99.90;;;9.19;100.00;101621.63;5171509;28;20065;-86
2022/04/27 01:56:52;;;;;;;14.63;7.20;;;9.20;99.90;;;9.20;100.00;101620.84;5172134;28;20332;-87
2022/04/27 01:59:24;;;;;;;14.07;6.50;;;9.30;99.90;;;9.19;100.00;101625.13;5171614;28;20050;-87
2022/04/27 02:01:57;;;;;;;12.45;6.20;;;9.20;99.90;;;9.22;100.00;101621.78;5171196;28;20056;-87
2022/04/27 02:04:29;;;;;;;14.70;6.65;;;9.30;99.90;;;9.24;100.00;101627.97;5171316;28;20054;-87
2022/04/27 02:07:02;;;;;;;14.98;6.55;;;9.30;99.90;;;9.23;100.00;101626.19;5171055;28;20051;-87
2022/04/27 02:09:34;;;;;;;12.30;6.63;;;9.30;99.90;;;9.24;100.00;101633.16;5170910;28;20054;-87
2022/04/27 02:12:08;;;;;;;15.52;6.78;;;9.30;99.90;;;9.24;100.00;101626.25;5170226;28;20132;-87
2022/04/27 02:14:40;;;;;;;13.30;7.07;;;9.30;99.90;;;9.24;100.00;101633.16;5170547;28;20055;-87
2022/04/27 02:17:12;;;;;;;14.23;7.35;;;9.30;99.90;;;9.22;100.00;101624.41;5172132;28;20054;-87
2022/04/27 02:19:44;;;;;;;13.57;7.07;;;9.30;99.90;;;9.20;100.00;101636.44;5172506;28;20050;-86
2022/04/27 02:22:18;;;;;;;17.95;7.68;;;9.20;99.90;;;9.17;100.00;101631.06;5171844;28;20046;-87
2022/04/27 02:24:50;;;;;;;18.55;8.40;;;9.20;99.90;;;9.16;100.00;101629.28;5171914;28;20061;-87
2022/04/27 02:27:22;;;;;;;16.92;8.43;;;9.20;99.90;;;9.14;100.00;101633.50;5171453;28;20412;-85
2022/04/27 02:29:54;;;;;;;18.10;7.70;;;9.30;99.90;;;9.12;100.00;101637.72;5172137;28;20547;-87
2022/04/27 02:32:26;;;;;;;19.95;7.65;;;9.20;99.90;;;9.09;100.00;101643.66;5171533;28;20046;-87
2022/04/27 02:34:58;;;;;;;15.30;7.15;;;9.20;99.90;;;9.07;99.90;101639.19;5171699;28;20058;-86
2022/04/27 02:37:31;;;;;;;13.68;7.05;;;9.20;99.90;;;9.00;99.51;101632.75;5172165;28;20058;-87
2022/04/27 02:40:08;;;;;;;15.63;7.55;;;9.10;99.90;;;8.97;99.57;101633.47;5171804;28;20066;-87
2022/04/27 02:42:40;;;;;;;15.10;7.07;;;9.10;99.90;;;8.93;99.45;101639.34;5170739;28;20516;-87
2022/04/27 02:45:12;;;;;;;15.65;7.35;;;9.10;99.90;;;8.87;98.99;101636.41;5170419;28;20046;-88
2022/04/27 02:47:44;;;;;;;14.85;6.78;;;9.00;99.90;;;8.84;99.15;101646.63;5170692;28;20052;-87
2022/04/27 02:53:06;;;;;;;14.07;6.13;;;8.90;99.90;;;8.73;98.32;101633.81;5170050;28;20050;-88
2022/04/27 02:55:38;;;;;;;14.30;6.78;;;8.80;99.90;;;8.68;98.56;101638.78;5170550;28;20047;-87
2022/04/27 02:58:10;;;;;;;14.25;7.95;;;8.80;99.90;;;8.64;98.20;101642.00;5171235;28;20412;-87
2022/04/27 03:00:44;;;;;;;13.85;6.72;;;8.70;99.90;;;8.58;98.14;101646.88;5170433;28;20061;-87
2022/04/27 03:03:16;;;;;;;13.18;6.80;;;8.70;99.90;;;8.56;97.96;101648.50;5170397;28;20046;-87
2022/04/27 03:05:48;;;;;;;15.27;6.20;;;8.70;99.90;;;8.51;97.75;101653.44;5170520;28;20050;-87
2022/04/27 03:08:22;;;;;;;10.75;6.28;;;8.60;99.90;;;8.48;98.08;101655.88;5169830;28;20057;-87
2022/04/27 03:10:54;;;;;;;14.27;6.13;;;8.60;99.90;;;8.44;98.11;101653.88;5171436;28;20054;-87
2022/04/27 03:13:26;;;;;;;12.50;7.35;;;8.50;99.90;;;8.38;97.57;101648.34;5170515;28;20420;-86
2022/04/27 03:15:57;;;;;;;14.77;6.60;;;8.50;99.90;;;8.34;97.66;101651.53;5171151;28;20053;-86
2022/04/27 03:18:30;;;;;;;12.57;6.68;;;8.50;99.90;;;8.31;97.48;101656.56;5170686;28;20421;-87
2022/04/27 03:21:02;;;;;;;11.45;6.10;;;8.40;99.90;;;8.26;97.62;101660.59;5169641;28;20110;-87
2022/04/27 03:23:35;;;;;;;13.45;6.50;;;8.40;99.90;;;8.22;97.26;101662.13;5169726;28;20042;-87
2022/04/27 03:26:07;;;;;;;13.02;6.65;;;8.30;99.90;;;8.15;97.03;101655.69;5170584;28;20125;-87
2022/04/27 03:28:39;;;;;;;13.50;6.22;;;8.30;99.90;;;8.14;97.02;101659.06;5170618;28;20070;-87
2022/04/27 03:31:11;;;;;;;14.82;6.82;;;8.20;99.90;;;8.10;97.65;101656.22;5173922;28;20052;-88
2022/04/27 03:33:43;;;;;;;13.60;6.72;;;8.20;99.90;;;8.08;97.48;101658.69;5169683;28;20050;-88
2022/04/27 03:36:15;;;;;;;15.40;6.72;;;8.20;99.90;;;8.08;97.58;101663.00;5170261;28;20062;-87
2022/04/27 03:38:49;;;;;;;13.23;6.60;;;8.20;99.90;;;8.06;97.37;101662.91;5170202;28;20050;-87
2022/04/27 03:41:22;;;;;;;14.02;6.22;;;8.20;99.90;;;8.03;97.59;101664.47;5169239;28;20050;-87
2022/04/27 03:43:54;;;;;;;16.40;7.32;;;8.10;99.90;;;8.05;97.86;101662.84;5168951;28;20050;-86
2022/04/27 03:46:26;;;;;;;14.43;6.20;;;8.10;99.90;;;8.02;97.35;101678.22;5170598;28;20058;-87
2022/04/27 03:48:58;;;;;;;15.63;6.35;;;8.10;99.90;;;7.99;97.33;101684.13;5170882;28;20046;-87
2022/04/27 03:51:30;;;;;;;14.20;6.75;;;8.10;99.90;;;7.95;97.32;101681.25;5170956;28;20046;-87
2022/04/27 03:54:03;;;;;;;13.27;6.40;;;8.10;99.90;;;7.93;96.99;101681.19;5170706;28;20042;-87
2022/04/27 03:56:35;;;;;;;15.38;6.80;;;8.00;99.90;;;7.89;97.09;101682.72;5171136;28;20052;-87
2022/04/27 03:59:07;;;;;;;14.57;6.97;;;8.00;99.90;;;7.91;97.31;101689.69;5170541;28;20062;-88
2022/04/27 04:01:39;;;;;;;15.30;6.95;;;8.00;99.90;;;7.92;97.19;101696.66;5169931;28;20054;-87
2022/04/27 04:04:11;;;;;;;12.18;6.65;;;8.00;99.90;;;7.84;97.18;101691.91;5171348;28;20064;-87
2022/04/27 04:06:43;;;;;;;12.90;6.43;;;8.00;99.90;;;7.86;96.94;101694.59;5170805;28;20050;-87
2022/04/27 04:09:16;;;;;;;11.85;5.43;;;8.00;99.90;;;7.79;97.04;101684.66;5162821;28;20069;-87
2022/04/27 04:11:48;;;;;;;16.25;6.88;;;8.00;99.90;;;7.74;96.60;101686.97;5170134;28;20062;-86
2022/04/27 04:14:20;;;;;;;12.82;6.47;;;7.90;99.90;;;7.75;96.43;101700.84;5170635;28;20050;-86
2022/04/27 04:16:53;;;;;;;12.65;6.38;;;7.90;99.90;;;7.72;96.56;101696.38;5170497;28;20133;-87
2022/04/27 04:19:24;;;;;;;14.13;6.75;;;7.90;99.90;;;7.70;96.62;101713.56;5170204;28;20053;-87
2022/04/27 04:21:56;;;;;;;17.02;7.28;;;7.80;99.90;;;7.67;96.66;101704.69;5170106;28;20057;-87
2022/04/27 04:24:30;;;;;;;12.95;6.45;;;7.80;99.90;;;7.68;97.20;101711.66;5171128;28;20050;-88
2022/04/27 04:29:48;;;;;;;13.95;6.75;;;7.80;99.90;;;7.69;96.86;101714.34;5147038;28;20050;-88
2022/04/27 04:32:20;;;;;;;16.30;6.85;;;7.80;99.90;;;7.66;96.48;101724.53;5169626;28;20050;-87
2022/04/27 04:34:52;;;;;;;14.38;7.57;;;7.80;99.90;;;7.64;96.63;101726.16;5231851;23;20425;-70
2022/04/27 04:37:23;;;;;;;13.95;6.68;;;7.70;99.90;;;7.63;96.96;101734.75;5162362;28;20057;-70
2022/04/27 04:39:57;;;;;;;12.70;6.13;;;7.70;99.90;;;7.62;96.68;101732.94;5163901;28;20054;-72
2022/04/27 04:42:29;;;;;;;13.30;6.03;;;7.80;99.90;;;7.64;97.36;101733.06;5163912;28;20051;-71
2022/04/27 04:45:01;;;;;;;14.07;6.80;;;7.80;99.90;;;7.67;97.48;101741.00;5164213;28;20047;-70
2022/04/27 04:47:33;;;;;;;15.85;6.60;;;7.80;99.90;;;7.68;97.21;101743.69;5163904;28;20060;-71
2022/04/27 04:50:06;;;;;;;14.02;6.50;;;7.80;99.90;;;7.69;97.03;101747.19;5163722;28;20081;-70
2022/04/27 04:52:38;;;;;;;13.82;6.50;;;7.80;99.90;;;7.70;97.44;101752.50;5167199;28;20494;-70
2022/04/27 04:55:12;;;;;;;12.20;5.75;;;7.80;99.90;;;7.69;97.41;101749.78;5167819;28;20137;-71
2022/04/27 04:57:44;;;;;;;13.30;7.00;;;7.80;99.90;;;7.69;97.38;101761.06;5167835;28;20053;-70
2022/04/27 05:00:16;;;;;;;12.55;6.45;;;7.80;99.90;;;7.70;96.79;101762.88;5167436;28;20050;-71
2022/04/27 05:02:48;;;;;;;14.40;7.40;;;7.80;99.90;;;7.72;97.29;101761.25;5167550;28;20471;-71
2022/04/27 05:05:20;;;;;;;14.60;7.05;;;7.80;99.90;;;7.74;97.19;101767.44;5167719;28;20080;-72
2022/04/27 05:07:52;;;;;;;13.77;7.18;;;7.90;99.90;;;7.78;97.07;101772.03;5167701;28;20050;-70
2022/04/27 05:10:26;;;;;;;16.08;7.57;;;7.90;99.90;;;7.82;96.92;101775.69;5167608;28;20052;-70
2022/04/27 05:12:58;;;;;;;14.10;6.95;;;7.90;99.90;;;7.85;96.98;101779.38;5167002;28;20042;-71
2022/04/27 05:15:30;;;;;;;15.27;7.07;;;7.90;99.90;;;7.89;97.38;101776.19;5167343;28;20065;-71
2022/04/27 05:18:02;;;;;;;15.80;7.13;;;8.00;99.90;;;7.96;97.58;101776.56;5167581;28;20145;-71
2022/04/27 05:20:34;;;;;;;13.60;7.38;;;8.00;99.90;;;8.06;98.06;101778.88;5167207;28;20501;-70
2022/04/27 05:23:06;;;;;;;14.93;7.10;;;8.10;99.90;;;8.27;98.83;101769.78;5167060;28;20051;-71
2022/04/27 05:25:40;;;;;;;16.17;7.65;;;8.30;99.90;;;8.65;100.00;101781.56;5167281;28;20046;-71
2022/04/27 05:28:12;;;;;;;17.33;7.55;;;8.50;99.90;;;9.10;100.00;101779.81;5167437;28;20050;-72
2022/04/27 05:33:35;;;;;;;15.25;7.63;;;9.30;99.90;;;10.12;96.88;101782.78;5166438;28;20054;-71
2022/04/27 05:36:08;;;;;;;14.63;7.68;;;9.80;99.90;;;10.58;93.62;101791.28;5166722;28;20132;-71
2022/04/27 05:38:40;;;;;;;14.20;8.38;;;10.20;99.90;;;11.01;90.10;101793.38;5167093;28;20415;-70
2022/04/27 05:41:14;;;;;;;13.00;6.85;;;10.60;99.90;;;11.42;86.81;101802.34;5166776;28;20054;-71
2022/04/27 05:43:47;;;;;;;14.13;6.93;;;11.00;99.90;;;11.85;84.39;101806.94;5166434;28;20498;-71
2022/04/27 05:46:19;;;;;;;15.73;7.50;;;11.40;99.90;;;12.12;81.76;101805.56;5166946;28;20499;-71
2022/04/27 05:48:51;;;;;;;14.43;6.68;;;11.70;99.90;;;12.45;80.56;101811.41;5166920;28;20046;-71
2022/04/27 05:51:23;;;;;;;15.95;7.47;;;12.00;99.90;;;12.81;79.44;101815.53;5166728;28;20056;-71
2022/04/27 05:53:56;;;;;;;14.15;7.20;;;12.20;99.90;;;13.16;77.94;101815.22;5166684;28;20479;-72
2022/04/27 05:56:29;;;;;;;17.17;7.07;;;12.60;99.90;;;13.49;76.85;101809.56;5166834;28;20503;-72
2022/04/27 05:59:02;;;;;;;15.43;7.07;;;12.80;99.90;;;13.72;75.29;101814.00;5166647;28;20050;-66
2022/04/27 06:01:34;;;;;;;13.90;6.85;;;13.10;99.90;;;13.91;74.10;101818.19;5166769;28;20584;-68
2022/04/27 06:04:06;;;;;;;13.68;7.32;;;13.30;99.90;;;14.11;73.19;101818.94;5165637;28;20069;-68
2022/04/27 06:06:38;;;;;;;14.18;7.50;;;13.50;99.90;;;14.16;72.53;101822.63;5166507;28;20058;-69
2022/04/27 06:09:10;;;;;;;17.35;7.53;;;13.70;99.90;;;14.22;72.14;101828.09;5166808;28;20050;-69
2022/04/27 06:11:44;;;;;;;14.05;7.07;;;13.70;99.90;;;14.42;71.46;101841.94;5165947;28;20050;-70
2022/04/27 06:14:16;;;;;;;16.40;7.93;;;13.90;99.90;;;14.51;70.36;101842.28;5166668;28;20046;-67
2022/04/27 06:16:48;;;;;;;14.68;7.50;;;14.00;99.90;;;14.49;70.37;101843.06;5166497;28;20145;-66
2022/04/27 06:19:20;;;;;;;13.35;7.40;;;14.00;99.90;;;14.56;70.47;101851.19;5166679;28;20081;-69
2022/04/27 06:21:52;;;;;;;11.93;5.82;;;14.00;99.90;;;14.72;69.50;101856.97;5166178;28;20078;-67
2022/04/27 06:24:26;;;;;;;13.20;7.40;;;14.20;99.90;;;14.86;69.29;101855.72;5166796;28;20048;-68
2022/04/27 06:26:59;;;;;;;13.95;7.97;;;14.40;99.90;;;14.97;68.64;101859.59;5167123;28;20401;-70
2022/04/27 06:29:31;;;;;;;12.88;6.63;;;14.50;99.90;;;15.04;68.43;101860.69;5166849;28;20135;-69
2022/04/27 06:32:05;;;;;;;14.25;7.38;;;14.60;99.90;;;15.19;68.23;101869.06;5166543;28;20060;-69
2022/04/27 06:34:37;;;;;;;11.73;6.35;;;14.70;99.90;;;15.43;67.22;101863.75;5166358;28;20509;-68
2022/04/27 06:37:08;;;;;;;14.73;7.25;;;14.90;99.90;;;15.72;66.57;101869.97;5166525;28;20050;-64
2022/04/27 06:39:40;;;;;;;15.38;6.78;;;15.20;99.90;;;15.96;65.02;101865.41;5161361;28;20050;-65
2022/04/27 06:42:14;;;;;;;12.80;6.38;;;15.50;99.90;;;16.19;63.75;101862.59;5165333;28;20129;-63
2022/04/27 06:44:46;;;;;;;20.10;8.27;;;15.70;99.90;;;16.52;62.66;101863.53;5165556;28;20082;-62
2022/04/27 06:47:18;;;;;;;14.32;7.22;;;16.00;99.50;;;16.66;60.71;101871.78;5165615;28;20050;-62
2022/04/27 06:49:50;;;;;;;14.35;7.90;;;16.10;98.20;;;16.77;60.83;101880.03;5165428;28;20137;-65
2022/04/27 06:52:22;;;;;;;14.40;7.45;;;16.20;98.00;;;16.89;59.94;101879.44;5165341;28;20079;-65
2022/04/27 06:54:54;;;;;;;14.27;7.65;;;16.30;97.30;;;17.11;59.83;101875.63;5165479;28;20050;-62
2022/04/27 06:57:27;;;;;;;13.05;7.63;;;16.50;97.30;;;17.33;58.53;101884.09;5165364;28;20080;-64
2022/04/27 06:59:59;;;;;;;16.65;7.72;;;16.70;96.40;;;17.49;56.93;101885.34;5165425;28;20047;-64
2022/04/27 07:02:33;;;;;;;13.23;8.20;;;16.90;95.30;;;17.66;56.61;101890.13;5165061;28;20384;-64
2022/04/27 07:05:09;;;;;;;14.45;7.07;;;17.00;94.70;;;17.75;55.77;101893.03;5165389;28;20043;-62
2022/04/27 07:07:41;;;;;;;14.70;7.13;;;17.10;94.00;;;17.75;54.95;101888.63;5162115;28;20053;-64
2022/04/27 07:10:15;;;;;;;14.57;7.53;;;17.20;93.10;;;17.74;54.86;101892.13;5164929;28;20054;-63
2022/04/27 07:12:48;;;;;;;12.90;7.20;;;17.20;92.80;;;17.67;53.86;101897.16;5160570;28;20403;-65
2022/04/27 07:15:20;;;;;;;14.73;7.90;;;17.20;91.30;;;17.78;54.55;101895.72;5162205;28;20050;-64
2022/04/27 07:17:52;;;;;;;13.20;7.32;;;17.30;91.90;;;18.00;53.52;101892.72;5164715;28;20061;-63
2022/04/27 07:35:45;;;;;;;13.00;7.35;;;18.20;83.90;;;18.93;50.68;101915.72;5339436;27;20475;-76
2022/04/27 07:38:17;;;;;;;13.88;7.50;;;18.40;85.80;;;19.17;49.37;101910.00;5286667;28;20048;-76
2022/04/27 07:40:49;;;;;;;13.93;6.97;;;18.50;83.70;;;19.37;48.03;101909.44;5287487;28;20490;-79
2022/04/27 07:43:21;;;;;;;12.75;7.15;;;18.70;80.90;;;19.64;47.62;101907.25;5287198;28;20414;-77
2022/04/27 07:45:52;;;;;;;11.30;6.85;;;18.80;80.70;;;19.89;47.67;101910.28;5288073;28;20135;-77
2022/04/27 07:48:24;;;;;;;14.00;6.93;;;19.00;81.20;;;19.89;46.71;101913.81;5287435;28;20050;-77
2022/04/27 07:50:58;;;;;;;11.85;6.88;;;19.10;78.60;;;19.89;46.71;101908.50;5287701;28;20048;-77
2022/04/27 07:53:30;;;;;;;10.73;6.15;;;19.10;78.70;;;19.87;46.37;101910.22;5286643;28;20044;-78
2022/04/27 07:56:04;;;;;;;12.43;7.03;;;19.10;77.00;;;19.96;46.33;101905.09;5288058;28;20047;-78
2022/04/27 07:58:36;;;;;;;14.82;7.63;;;19.10;77.40;;;20.26;45.52;101911.63;5286772;28;20157;-76
2022/04/27 08:01:08;;;;;;;13.02;7.30;;;19.20;76.60;;;20.60;45.91;101910.31;5285972;28;20528;-76
2022/04/27 08:03:40;;;;;;;11.10;7.05;;;19.40;77.60;;;21.02;44.94;101906.34;5286125;28;20048;-77
2022/04/27 08:06:13;;;;;;;10.55;7.05;;;19.70;76.60;;;21.13;44.48;101909.97;5286212;28;20421;-76
2022/04/27 08:08:45;;;;;;;15.35;6.95;;;19.70;75.80;;;21.45;43.81;101912.91;5286446;28;20397;-77
2022/04/27 08:11:17;;;;;;;11.85;7.20;;;19.90;75.20;;;21.85;42.71;101915.88;5286249;28;20052;-76
2022/04/27 08:13:49;;;;;;;11.30;7.53;;;20.10;74.20;;;22.16;42.16;101917.81;5285655;28;20402;-77
2022/04/27 08:16:21;;;;;;;11.13;6.70;;;20.20;73.80;;;22.50;41.05;101922.41;5285958;28;20048;-76
2022/04/27 08:18:53;;;;;;;13.55;6.70;;;20.40;72.00;;;22.87;40.95;101928.72;5286109;28;20051;-77
2022/04/27 08:21:28;;;;;;;11.35;6.60;;;20.50;73.10;;;23.33;39.72;101928.78;5286473;28;20054;-76
2022/04/27 08:24:03;;;;;;;10.45;6.57;;;20.60;71.70;;;23.87;38.48;101927.88;5285827;28;20455;-77
2022/04/27 08:26:35;;;;;;;10.23;6.30;;;20.80;70.80;;;24.58;36.80;101923.16;5285860;28;20055;-77
2022/04/27 08:29:07;;;;;;;10.05;6.70;;;21.20;69.10;;;25.31;36.21;101924.50;5286042;28;20054;-76
2022/04/27 08:31:40;;;;;;;10.45;5.70;;;21.60;68.90;;;25.66;34.39;101926.84;5285592;28;20425;-77
2022/04/27 08:34:12;;;;;;;11.55;6.25;;;21.90;65.40;;;26.41;33.52;101926.06;5285367;28;20052;-76
2022/04/27 08:36:45;;;;;;;11.63;6.97;;;22.50;64.60;;;27.15;32.03;101934.81;5285807;28;20413;-76
2022/04/27 08:39:17;;;;;;;11.13;7.05;;;23.00;62.30;;;27.25;31.33;101936.41;5286422;28;20052;-76
2022/04/27 08:41:49;;;;;;;10.52;6.63;;;23.30;60.30;;;27.62;30.93;101941.16;5286186;28;20048;-77
2022/04/27 08:44:21;;;;;;;10.65;6.30;;;23.70;59.70;;;28.11;30.25;101940.28;5286024;28;20044;-76
2022/04/27 08:46:55;;;;;;;10.75;6.57;;;24.10;59.20;;;28.33;30.49;101938.06;5272699;28;20074;-76
2022/04/27 08:49:27;;;;;;;10.70;6.45;;;24.40;58.60;;;28.50;30.65;101935.03;5271014;28;20044;-76
2022/04/27 08:52:01;;;;;;;9.80;5.72;;;24.60;58.90;;;28.81;29.27;101932.53;5271107;28;20044;-77
2022/04/27 08:54:34;;;;;;;10.32;5.53;;;24.90;57.20;;;28.81;29.12;101936.09;5271370;28;20048;-76
2022/04/27 08:57:06;;;;;;;9.93;5.90;;;25.00;56.30;;;28.90;29.49;101938.56;5271162;28;20498;-76
2022/04/27 08:59:38;;;;;;;9.65;6.40;;;25.10;56.50;;;28.82;29.41;101937.88;5270944;28;20044;-77
2022/04/27 09:02:24;;;;;;;9.43;5.82;;;25.10;55.90;;;28.89;29.08;101942.19;5270624;28;20055;-77
2022/04/27 09:05:10;;;;;;;9.07;6.00;;;25.20;55.70;;;28.82;29.53;101942.31;5271070;28;20044;-75
2022/04/27 09:07:45;;;;;;;;;;;25.30;55.50;;;28.38;29.72;101941.53;5271161;28;20055;-76
2022/04/27 09:10:19;;;;;;;10.02;6.25;;;25.10;56.00;;;27.93;30.28;101940.63;5270542;28;19920;-78
2022/04/27 09:12:53;;;;;;;11.90;7.22;;;24.90;55.90;;;27.43;31.74;101945.06;5270513;28;20090;-76
2022/04/27 09:15:27;;;;;;;9.75;6.53;;;24.70;56.50;;;27.05;31.98;101934.06;5270405;28;20055;-77
2022/04/27 09:21:00;;;;;;;11.27;6.20;;;24.40;57.20;;;25.96;33.90;101933.72;5270720;28;20517;-76
2022/04/27 09:23:39;;;;;;;11.45;6.28;;;24.10;57.70;;;25.05;35.19;101933.59;5270111;28;20048;-78
2022/04/27 09:26:18;;;;;;;11.07;7.30;;;23.60;58.30;;;24.14;37.00;101931.34;5270443;28;20070;-77
2022/04/27 09:28:51;;;;;;;12.05;6.82;;;23.00;59.40;;;23.40;38.33;101931.41;5270600;28;20105;-77
2022/04/27 09:38:13;;;;;;;12.38;6.90;;;21.70;61.30;;;22.26;40.13;101925.84;5361775;27;20419;-76
2022/04/27 09:40:47;;;;;;;12.18;5.53;;;21.50;62.40;;;21.98;40.75;101928.31;5308137;27;20405;-76
2022/04/27 09:43:44;;;;;;;12.80;6.38;;;21.20;63.20;;;21.82;41.41;101916.72;5306859;28;20043;-76
2022/04/27 09:46:22;;;;;;;12.77;6.72;;;21.00;64.10;;;21.62;41.48;101919.22;5307851;27;20417;-76
2022/04/27 09:49:11;;;;;;;13.07;6.85;;;20.80;64.30;;;21.68;42.84;101929.00;5307413;27;20047;-77
2022/04/27 09:51:49;;;;;;;11.88;6.95;;;20.80;66.00;;;21.80;42.81;101914.94;5307267;27;20043;-77
2022/04/27 09:54:25;;;;;;;12.38;6.22;;;20.90;66.30;;;21.83;43.60;101913.19;5307311;27;20062;-77
2022/04/27 09:56:58;;;;;;;11.95;6.68;;;20.90;67.30;;;21.73;44.17;101915.78;5307660;27;20096;-77
2022/04/27 09:59:33;;;;;;;11.57;6.20;;;20.80;67.70;;;21.83;43.95;101912.28;5307490;27;20416;-77
2022/04/27 10:02:08;;;;;;;10.05;6.13;;;20.90;67.80;;;22.11;43.66;101908.06;5306777;27;20048;-76
2022/04/27 10:04:42;;;;;;;15.00;6.80;;;21.10;68.00;;;22.32;42.42;101913.47;5307646;27;20108;-77
2022/04/27 10:07:15;;;;;;;11.57;6.75;;;21.20;66.80;;;22.51;41.95;101918.88;5316799;27;20043;-77
2022/04/27 10:09:49;;;;;;;10.85;6.00;;;21.40;66.40;;;22.43;41.61;101909.09;5325252;27;20055;-78
2022/04/27 10:12:21;;;;;;;15.27;6.53;;;21.40;65.50;;;22.35;40.85;101918.78;5330194;27;20051;-77
2022/04/27 10:14:53;;;;;;;11.18;5.65;;;21.40;64.60;;;22.35;41.00;101908.16;5329857;27;20051;-77
2022/04/27 10:17:25;;;;;;;10.85;5.00;;;21.40;64.60;;;22.21;40.29;101904.56;5328817;27;20039;-78
2022/04/27 10:19:57;;;;;;;9.55;5.80;;;21.40;63.50;;;21.72;39.62;101909.59;5328066;27;20043;-76
2022/04/27 10:22:32;;;;;;;7.40;4.90;;;21.10;61.80;;;21.33;40.96;101905.78;5328784;27;20043;-77
2022/04/27 10:25:11;;;;;;;11.07;5.47;;;20.80;63.00;;;21.14;42.90;101903.81;5329701;27;20043;-78
2022/04/27 10:27:44;;;;;;;9.30;5.97;;;20.60;65.50;;;21.27;43.26;101892.41;5329386;27;20051;-77
2022/04/27 10:30:17;;;;;;;10.27;5.57;;;20.50;66.20;;;21.62;43.69;101898.00;5322857;27;20055;-77
2022/04/27 10:32:51;;;;;;;10.15;5.15;;;20.70;67.60;;;21.90;43.33;101898.16;5328350;27;20130;-77
2022/04/27 10:35:29;;;;;;;10.40;4.60;;;20.80;67.70;;;22.22;42.69;101898.38;5342501;22;20069;-84
2022/04/27 10:38:05;;;;;;;9.77;5.65;;;21.10;67.20;;;22.44;41.30;101900.25;5316695;28;20135;-83
2022/04/27 10:40:43;;;;;;;11.50;4.93;;;21.30;65.80;;;22.43;40.99;101895.81;5316898;28;20044;-82
2022/04/27 10:43:27;;;;;;;8.82;5.43;;;21.40;65.10;;;22.12;41.20;101893.91;5313861;28;20146;-83
2022/04/27 10:46:00;;;;;;;11.82;6.25;;;21.30;64.70;;;22.08;42.24;101903.59;5319852;28;20047;-83
2022/04/27 10:48:48;;;;;;;10.32;5.30;;;21.20;65.70;;;22.18;41.66;101894.81;5312018;28;20107;-82
2022/04/27 10:51:21;;;;;;;8.93;5.05;;;21.20;65.40;;;22.20;40.91;101893.06;5306902;28;20055;-82
2022/04/27 10:54:05;;;;;;;11.60;5.53;;;21.30;64.60;;;22.30;41.57;101887.78;5305482;28;20130;-85
2022/04/27 10:56:38;;;;;;;9.43;5.95;;;21.30;65.50;;;22.47;41.97;101896.69;5307795;28;20604;-85
2022/04/27 10:59:47;;;;;;;10.60;5.60;;;21.50;66.00;;;22.64;40.96;101894.97;5311141;28;20105;-84
2022/04/27 11:02:37;;;;;;;11.38;6.03;;;21.60;64.90;;;22.72;40.46;101900.31;5308896;28;20054;-80
2022/04/27 11:05:21;;;;;;;8.35;5.10;;;21.70;64.20;;;22.73;39.79;101896.75;5299777;28;20074;-79
2022/04/27 11:08:00;;;;;;;9.40;4.63;;;21.70;63.40;;;22.78;39.06;101889.69;5295872;27;20064;-80
2022/04/27 11:10:32;;;;;;;9.63;4.43;;;21.80;62.70;;;22.60;39.52;101892.31;5303865;27;20052;-81
2022/04/27 11:13:07;;;;;;;10.60;5.18;;;21.70;62.40;;;22.12;38.94;101891.25;5293433;28;20047;-80
2022/04/27 11:15:39;;;;;;;9.75;5.32;;;21.50;60.90;;;21.71;39.75;101894.53;5294808;28;20056;-80